createdAt,value
2018-12-21T00:00:15.926Z,5.89
2018-12-21T00:01:15.902Z,5.85
2018-12-21T00:02:15.881Z,5.85
2018-12-21T00:03:15.866Z,5.85
2018-12-21T00:04:15.837Z,5.90
2018-12-21T00:05:15.813Z,5.83
2018-12-21T00:06:15.794Z,5.83
2018-12-21T00:07:15.775Z,5.81
2018-12-21T00:08:15.749Z,5.86
2018-12-21T00:09:15.722Z,5.79
2018-12-21T00:10:15.706Z,5.83
2018-12-21T00:11:15.681Z,5.85
2018-12-21T00:12:15.660Z,5.81
2018-12-21T00:13:15.635Z,5.82
2018-12-21T00:14:15.613Z,5.85
2018-12-21T00:15:15.592Z,5.85
2018-12-21T00:16:15.567Z,5.91
2018-12-21T00:17:15.550Z,5.89
2018-12-21T00:18:15.525Z,5.91
2018-12-21T00:19:15.506Z,5.85
2018-12-21T00:20:15.482Z,5.90
2018-12-21T00:21:21.831Z,5.89
2018-12-21T00:22:15.436Z,5.89
2018-12-21T00:23:15.414Z,5.91
2018-12-21T00:24:15.392Z,5.85
2018-12-21T00:25:15.368Z,5.93
2018-12-21T00:26:15.348Z,5.83
2018-12-21T00:27:15.331Z,5.86
2018-12-21T00:28:15.300Z,5.91
2018-12-21T00:29:15.278Z,5.86
2018-12-21T00:30:15.259Z,5.86
2018-12-21T00:31:15.249Z,5.86
2018-12-21T00:32:15.215Z,5.85
2018-12-21T00:33:15.190Z,5.93
2018-12-21T00:34:15.169Z,5.82
2018-12-21T00:35:15.146Z,5.86
2018-12-21T00:36:15.128Z,5.78
2018-12-21T00:37:15.102Z,5.82
2018-12-21T00:38:15.111Z,5.89
2018-12-21T00:39:15.056Z,5.90
2018-12-21T00:40:15.034Z,5.85
2018-12-21T00:41:15.012Z,5.83
2018-12-21T00:42:14.991Z,5.81
2018-12-21T00:43:14.970Z,5.78
2018-12-21T00:44:14.944Z,5.78
2018-12-21T00:45:14.926Z,5.72
2018-12-21T00:46:14.902Z,5.75
2018-12-21T00:47:14.888Z,5.71
2018-12-21T00:48:14.856Z,5.65
2018-12-21T00:49:14.832Z,5.61
2018-12-21T00:50:14.813Z,5.67
2018-12-21T00:51:14.794Z,5.58
2018-12-21T00:52:14.768Z,5.53
2018-12-21T00:53:14.746Z,5.56
2018-12-21T00:54:14.742Z,5.51
2018-12-21T00:55:14.704Z,5.48
2018-12-21T00:56:14.678Z,5.49
2018-12-21T00:57:14.656Z,5.48
2018-12-21T00:58:14.636Z,5.48
2018-12-21T00:59:14.613Z,5.45
2018-12-21T01:00:14.692Z,5.36
2018-12-21T01:01:14.568Z,5.49
2018-12-21T01:02:14.548Z,5.43
2018-12-21T01:03:14.529Z,5.42
2018-12-21T01:04:14.508Z,5.43
2018-12-21T01:05:14.484Z,5.43
2018-12-21T01:06:14.454Z,5.43
2018-12-21T01:07:14.441Z,5.30
2018-12-21T01:08:14.416Z,5.38
2018-12-21T01:09:14.391Z,5.38
2018-12-21T01:10:14.365Z,5.43
2018-12-21T01:11:14.344Z,5.40
2018-12-21T01:12:14.322Z,5.39
2018-12-21T01:13:14.297Z,5.38
2018-12-21T01:14:14.275Z,5.40
2018-12-21T01:15:14.256Z,5.36
2018-12-21T01:16:14.246Z,5.40
2018-12-21T01:17:14.207Z,5.31
2018-12-21T01:18:14.267Z,5.28
2018-12-21T01:19:14.165Z,5.38
2018-12-21T01:20:14.144Z,5.39
2018-12-21T01:21:14.119Z,5.35
2018-12-21T01:22:14.100Z,5.33
2018-12-21T01:23:14.074Z,5.28
2018-12-21T01:24:14.059Z,5.28
2018-12-21T01:25:14.027Z,5.33
2018-12-21T01:26:13.998Z,5.28
2018-12-21T01:27:13.976Z,5.31
2018-12-21T01:28:13.964Z,5.33
2018-12-21T01:29:13.944Z,5.35
2018-12-21T01:30:13.919Z,5.31
2018-12-21T01:31:13.899Z,5.35
2018-12-21T01:32:13.872Z,5.28
2018-12-21T01:33:13.855Z,5.31
2018-12-21T01:34:13.842Z,5.36
2018-12-21T01:35:13.805Z,5.28
2018-12-21T01:36:13.783Z,5.35
2018-12-21T01:37:13.759Z,5.35
2018-12-21T01:38:13.741Z,5.31
2018-12-21T01:39:13.715Z,5.33
2018-12-21T01:40:13.692Z,5.38
2018-12-21T01:41:13.669Z,5.33
2018-12-21T01:42:13.645Z,5.38
2018-12-21T01:43:13.627Z,5.39
2018-12-21T01:44:13.602Z,5.35
2018-12-21T01:45:13.585Z,5.28
2018-12-21T01:46:13.561Z,5.25
2018-12-21T01:47:13.535Z,5.33
2018-12-21T01:48:13.513Z,5.39
2018-12-21T01:49:13.491Z,5.33
2018-12-21T01:50:13.471Z,5.39
2018-12-21T01:51:13.445Z,5.43
2018-12-21T01:52:13.428Z,5.42
2018-12-21T01:53:13.447Z,5.35
2018-12-21T01:54:13.375Z,5.43
2018-12-21T01:55:13.353Z,5.45
2018-12-21T01:56:13.337Z,5.36
2018-12-21T01:57:13.311Z,5.48
2018-12-21T01:58:13.292Z,5.45
2018-12-21T01:59:13.265Z,5.49
2018-12-21T02:00:13.245Z,5.43
2018-12-21T02:01:13.221Z,5.48
2018-12-21T02:02:13.198Z,5.42
2018-12-21T02:03:13.178Z,5.53
2018-12-21T02:04:13.155Z,5.49
2018-12-21T02:05:13.133Z,5.49
2018-12-21T02:06:13.108Z,5.45
2018-12-21T02:07:13.091Z,5.51
2018-12-21T02:08:13.065Z,5.53
2018-12-21T02:09:13.044Z,5.46
2018-12-21T02:10:13.019Z,5.53
2018-12-21T02:11:13.003Z,5.51
2018-12-21T02:12:12.980Z,5.51
2018-12-21T02:13:12.953Z,5.60
2018-12-21T02:14:12.929Z,5.57
2018-12-21T02:15:12.907Z,5.64
2018-12-21T02:16:12.886Z,5.60
2018-12-21T02:17:12.863Z,5.60
2018-12-21T02:18:13.569Z,5.57
2018-12-21T02:19:12.818Z,5.58
2018-12-21T02:20:12.800Z,5.63
2018-12-21T02:21:12.775Z,5.68
2018-12-21T02:22:12.751Z,5.65
2018-12-21T02:23:12.731Z,5.63
2018-12-21T02:24:12.710Z,5.65
2018-12-21T02:25:12.683Z,5.64
2018-12-21T02:26:12.665Z,5.63
2018-12-21T02:27:12.639Z,5.65
2018-12-21T02:28:12.616Z,5.65
2018-12-21T02:29:12.601Z,5.64
2018-12-21T02:30:12.576Z,5.68
2018-12-21T02:31:12.554Z,5.72
2018-12-21T02:32:12.532Z,5.71
2018-12-21T02:33:12.503Z,5.67
2018-12-21T02:34:12.482Z,5.67
2018-12-21T02:35:12.535Z,5.68
2018-12-21T02:36:12.439Z,5.74
2018-12-21T02:37:12.416Z,5.79
2018-12-21T02:38:12.397Z,5.78
2018-12-21T02:39:12.373Z,5.78
2018-12-21T02:40:12.355Z,5.76
2018-12-21T02:41:12.331Z,5.81
2018-12-21T02:42:12.307Z,5.78
2018-12-21T02:43:12.301Z,5.72
2018-12-21T02:44:12.267Z,5.75
2018-12-21T02:45:12.241Z,5.72
2018-12-21T02:46:12.216Z,5.82
2018-12-21T02:47:12.197Z,5.82
2018-12-21T02:48:12.177Z,5.82
2018-12-21T02:49:12.150Z,5.85
2018-12-21T02:50:12.121Z,5.85
2018-12-21T02:51:12.109Z,5.82
2018-12-21T02:52:12.084Z,5.91
2018-12-21T02:53:12.061Z,5.82
2018-12-21T02:54:12.040Z,5.90
2018-12-21T02:55:12.022Z,5.86
2018-12-21T02:56:11.996Z,5.82
2018-12-21T02:57:11.971Z,5.81
2018-12-21T02:58:11.951Z,5.86
2018-12-21T02:59:11.928Z,5.89
2018-12-21T03:00:11.907Z,5.89
2018-12-21T03:01:11.888Z,5.94
2018-12-21T03:02:11.859Z,5.91
2018-12-21T03:03:11.838Z,5.91
2018-12-21T03:04:11.817Z,5.91
2018-12-21T03:05:11.797Z,5.91
2018-12-21T03:06:11.775Z,5.96
2018-12-21T03:07:11.748Z,6.00
2018-12-21T03:08:11.733Z,6.00
2018-12-21T03:09:11.708Z,6.01
2018-12-21T03:10:11.685Z,5.90
2018-12-21T03:11:11.664Z,6.03
2018-12-21T03:12:11.643Z,5.97
2018-12-21T03:13:11.621Z,6.00
2018-12-21T03:14:11.594Z,6.01
2018-12-21T03:15:11.573Z,6.00
2018-12-21T03:16:11.556Z,6.00
2018-12-21T03:17:11.531Z,6.01
2018-12-21T03:18:11.509Z,6.06
2018-12-21T03:19:11.496Z,6.03
2018-12-21T03:20:11.466Z,6.03
2018-12-21T03:21:11.444Z,6.04
2018-12-21T03:22:15.056Z,6.06
2018-12-21T03:23:11.396Z,6.01
2018-12-21T03:24:11.376Z,6.04
2018-12-21T03:25:11.353Z,6.08
2018-12-21T03:26:11.329Z,6.06
2018-12-21T03:27:11.409Z,6.03
2018-12-21T03:28:11.285Z,6.04
2018-12-21T03:29:11.260Z,6.12
2018-12-21T03:30:11.249Z,6.11
2018-12-21T03:31:11.217Z,6.06
2018-12-21T03:32:11.204Z,6.08
2018-12-21T03:33:11.173Z,6.11
2018-12-21T03:34:11.151Z,6.04
2018-12-21T03:35:11.134Z,6.12
2018-12-21T03:36:11.108Z,6.11
2018-12-21T03:37:11.088Z,6.15
2018-12-21T03:38:11.066Z,6.17
2018-12-21T03:39:11.043Z,6.19
2018-12-21T03:40:11.018Z,6.25
2018-12-21T03:41:10.993Z,6.17
2018-12-21T03:42:10.975Z,6.18
2018-12-21T03:43:10.951Z,6.17
2018-12-21T03:44:10.930Z,6.25
2018-12-21T03:45:10.914Z,6.21
2018-12-21T03:46:10.884Z,6.27
2018-12-21T03:47:10.859Z,6.25
2018-12-21T03:48:10.843Z,6.25
2018-12-21T03:49:10.820Z,6.18
2018-12-21T03:50:10.797Z,6.19
2018-12-21T03:51:10.772Z,6.28
2018-12-21T03:52:10.751Z,6.31
2018-12-21T03:53:10.728Z,6.33
2018-12-21T03:54:10.711Z,6.30
2018-12-21T03:55:10.685Z,6.36
2018-12-21T03:56:10.663Z,6.34
2018-12-21T03:57:10.639Z,6.37
2018-12-21T03:58:10.630Z,6.37
2018-12-21T03:59:10.596Z,6.37
2018-12-21T04:00:10.576Z,6.46
2018-12-21T04:01:10.557Z,6.40
2018-12-21T04:02:10.529Z,6.44
2018-12-21T04:03:10.510Z,6.48
2018-12-21T04:04:10.489Z,6.41
2018-12-21T04:05:10.465Z,6.51
2018-12-21T04:06:10.443Z,6.52
2018-12-21T04:07:10.425Z,6.51
2018-12-21T04:08:10.394Z,6.49
2018-12-21T04:09:10.375Z,6.56
2018-12-21T04:10:10.353Z,6.51
2018-12-21T04:11:10.333Z,6.55
2018-12-21T04:12:10.309Z,6.58
2018-12-21T04:13:10.287Z,6.54
2018-12-21T04:14:10.265Z,6.56
2018-12-21T04:15:10.238Z,6.56
2018-12-21T04:16:10.217Z,6.48
2018-12-21T04:17:10.206Z,6.55
2018-12-21T04:18:10.177Z,6.48
2018-12-21T04:19:10.154Z,6.51
2018-12-21T04:20:10.133Z,6.54
2018-12-21T04:21:10.108Z,6.62
2018-12-21T04:22:10.085Z,6.56
2018-12-21T04:23:10.059Z,6.48
2018-12-21T04:24:10.042Z,6.54
2018-12-21T04:25:10.019Z,6.52
2018-12-21T04:26:09.996Z,6.51
2018-12-21T04:27:09.975Z,6.43
2018-12-21T04:28:09.957Z,6.55
2018-12-21T04:29:09.940Z,6.49
2018-12-21T04:30:09.914Z,6.58
2018-12-21T04:31:09.883Z,6.51
2018-12-21T04:32:09.872Z,6.48
2018-12-21T04:33:09.841Z,6.51
2018-12-21T04:34:09.824Z,6.48
2018-12-21T04:35:09.798Z,6.46
2018-12-21T04:36:09.776Z,6.51
2018-12-21T04:37:09.750Z,6.49
2018-12-21T04:38:09.729Z,6.46
2018-12-21T04:39:09.710Z,6.46
2018-12-21T04:40:09.690Z,6.54
2018-12-21T04:41:09.666Z,6.54
2018-12-21T04:42:09.812Z,6.51
2018-12-21T04:43:09.620Z,6.51
2018-12-21T04:44:09.603Z,6.59
2018-12-21T04:45:09.581Z,6.48
2018-12-21T04:46:09.552Z,6.43
2018-12-21T04:47:09.534Z,6.55
2018-12-21T04:48:09.508Z,6.48
2018-12-21T04:49:09.482Z,6.54
2018-12-21T04:50:09.470Z,6.62
2018-12-21T04:51:09.443Z,6.55
2018-12-21T04:52:09.525Z,6.56
2018-12-21T04:53:09.398Z,6.59
2018-12-21T04:54:09.378Z,6.46
2018-12-21T04:55:09.355Z,6.51
2018-12-21T04:56:09.334Z,6.51
2018-12-21T04:57:09.315Z,6.49
2018-12-21T04:58:09.288Z,6.52
2018-12-21T04:59:09.759Z,6.54
2018-12-21T05:00:09.242Z,6.52
2018-12-21T05:01:09.224Z,6.52
2018-12-21T05:02:09.195Z,6.54
2018-12-21T05:03:09.184Z,6.56
2018-12-21T05:04:09.151Z,6.46
2018-12-21T05:05:09.134Z,6.66
2018-12-21T05:06:09.108Z,6.58
2018-12-21T05:07:12.669Z,6.49
2018-12-21T05:08:09.064Z,6.51
2018-12-21T05:09:09.042Z,6.46
2018-12-21T05:10:09.017Z,6.49
2018-12-21T05:11:08.995Z,6.54
2018-12-21T05:12:08.984Z,6.52
2018-12-21T05:13:08.952Z,6.49
2018-12-21T05:14:08.931Z,6.51
2018-12-21T05:15:08.914Z,6.43
2018-12-21T05:16:08.890Z,6.59
2018-12-21T05:17:08.867Z,6.56
2018-12-21T05:18:08.849Z,6.58
2018-12-21T05:19:08.826Z,6.48
2018-12-21T05:20:08.798Z,6.61
2018-12-21T05:21:08.783Z,6.44
2018-12-21T05:22:08.852Z,6.58
2018-12-21T05:23:08.731Z,6.61
2018-12-21T05:24:08.716Z,6.59
2018-12-21T05:25:08.689Z,6.52
2018-12-21T05:26:08.665Z,6.51
2018-12-21T05:27:08.644Z,6.56
2018-12-21T05:28:08.625Z,6.52
2018-12-21T05:29:08.598Z,6.62
2018-12-21T05:30:08.583Z,6.62
2018-12-21T05:31:08.570Z,6.64
2018-12-21T05:32:08.531Z,6.52
2018-12-21T05:33:08.508Z,6.61
2018-12-21T05:34:08.492Z,6.66
2018-12-21T05:35:08.474Z,6.52
2018-12-21T05:36:08.452Z,6.56
2018-12-21T05:37:08.428Z,6.56
2018-12-21T05:38:08.402Z,6.62
2018-12-21T05:39:08.382Z,6.58
2018-12-21T05:40:08.362Z,6.59
2018-12-21T05:41:08.334Z,6.62
2018-12-21T05:42:08.311Z,6.61
2018-12-21T05:43:08.295Z,6.58
2018-12-21T05:44:08.267Z,6.59
2018-12-21T05:45:08.248Z,6.55
2018-12-21T05:46:08.223Z,6.59
2018-12-21T05:47:08.204Z,6.58
2018-12-21T05:48:08.181Z,6.59
2018-12-21T05:49:08.154Z,6.54
2018-12-21T05:50:08.138Z,6.62
2018-12-21T05:51:08.114Z,6.70
2018-12-21T05:52:08.094Z,6.59
2018-12-21T05:53:08.067Z,6.58
2018-12-21T05:54:08.046Z,6.55
2018-12-21T05:55:08.025Z,6.59
2018-12-21T05:56:08.009Z,6.64
2018-12-21T05:57:07.981Z,6.66
2018-12-21T05:58:07.959Z,6.59
2018-12-21T05:59:07.936Z,6.66
2018-12-21T06:00:07.916Z,6.67
2018-12-21T06:01:07.891Z,6.56
2018-12-21T06:02:07.874Z,6.62
2018-12-21T06:03:07.850Z,6.55
2018-12-21T06:04:07.824Z,6.55
2018-12-21T06:05:07.801Z,6.59
2018-12-21T06:06:07.789Z,6.67
2018-12-21T06:07:07.755Z,6.64
2018-12-21T06:08:07.737Z,6.69
2018-12-21T06:09:07.715Z,6.73
2018-12-21T06:10:07.695Z,6.62
2018-12-21T06:11:07.672Z,6.61
2018-12-21T06:12:07.657Z,6.66
2018-12-21T06:13:07.627Z,6.64
2018-12-21T06:14:07.604Z,6.56
2018-12-21T06:15:07.579Z,6.62
2018-12-21T06:16:07.565Z,6.64
2018-12-21T06:17:07.535Z,6.62
2018-12-21T06:18:07.511Z,6.59
2018-12-21T06:19:07.501Z,6.52
2018-12-21T06:20:07.476Z,6.61
2018-12-21T06:21:07.449Z,6.54
2018-12-21T06:22:07.425Z,6.59
2018-12-21T06:23:09.625Z,6.64
2018-12-21T06:24:07.384Z,6.61
2018-12-21T06:25:07.363Z,6.61
2018-12-21T06:26:07.338Z,6.66
2018-12-21T06:27:07.317Z,6.59
2018-12-21T06:28:07.299Z,6.59
2018-12-21T06:29:07.268Z,6.59
2018-12-21T06:30:07.247Z,6.54
2018-12-21T06:31:07.227Z,6.64
2018-12-21T06:32:07.207Z,6.56
2018-12-21T06:33:07.185Z,6.54
2018-12-21T06:34:07.157Z,6.59
2018-12-21T06:35:07.141Z,6.49
2018-12-21T06:36:07.123Z,6.58
2018-12-21T06:37:07.091Z,6.58
2018-12-21T06:38:07.078Z,6.56
2018-12-21T06:39:07.049Z,6.56
2018-12-21T06:40:07.025Z,6.59
2018-12-21T06:41:07.002Z,6.54
2018-12-21T06:42:06.983Z,6.52
2018-12-21T06:43:06.962Z,6.62
2018-12-21T06:44:06.937Z,6.56
2018-12-21T06:45:06.921Z,6.61
2018-12-21T06:46:13.966Z,6.58
2018-12-21T06:47:06.873Z,6.66
2018-12-21T06:48:06.860Z,6.56
2018-12-21T06:49:06.823Z,6.58
2018-12-21T06:50:06.803Z,6.55
2018-12-21T06:51:06.783Z,6.55
2018-12-21T06:52:06.759Z,6.55
2018-12-21T06:53:06.738Z,6.62
2018-12-21T06:54:06.715Z,6.56
2018-12-21T06:55:06.699Z,6.55
2018-12-21T06:56:06.671Z,6.61
2018-12-21T06:57:06.651Z,6.61
2018-12-21T06:58:06.627Z,6.62
2018-12-21T06:59:06.603Z,6.56
2018-12-21T07:00:06.633Z,6.62
2018-12-21T07:01:06.560Z,6.58
2018-12-21T07:02:06.534Z,6.64
2018-12-21T07:03:06.516Z,6.51
2018-12-21T07:04:06.497Z,6.59
2018-12-21T07:05:06.471Z,6.61
2018-12-21T07:06:06.462Z,6.66
2018-12-21T07:07:06.427Z,6.62
2018-12-21T07:08:06.402Z,6.62
2018-12-21T07:09:06.384Z,6.56
2018-12-21T07:10:06.363Z,6.62
2018-12-21T07:11:06.338Z,6.64
2018-12-21T07:12:06.319Z,6.59
2018-12-21T07:13:06.292Z,6.69
2018-12-21T07:14:06.281Z,6.64
2018-12-21T07:15:06.250Z,6.67
2018-12-21T07:16:06.227Z,6.64
2018-12-21T07:17:06.208Z,6.58
2018-12-21T07:18:06.183Z,6.59
2018-12-21T07:19:06.167Z,6.61
2018-12-21T07:20:06.146Z,6.71
2018-12-21T07:21:06.116Z,6.69
2018-12-21T07:22:06.094Z,6.76
2018-12-21T07:23:06.073Z,6.66
2018-12-21T07:24:06.048Z,6.73
2018-12-21T07:25:06.026Z,6.69
2018-12-21T07:26:06.005Z,6.71
2018-12-21T07:27:05.987Z,6.64
2018-12-21T07:28:05.966Z,6.73
2018-12-21T07:29:05.940Z,6.73
2018-12-21T07:30:05.922Z,6.66
2018-12-21T07:31:05.896Z,6.62
2018-12-21T07:32:05.874Z,6.66
2018-12-21T07:33:05.848Z,6.56
2018-12-21T07:34:05.826Z,6.61
2018-12-21T07:35:05.808Z,6.73
2018-12-21T07:36:08.591Z,6.71
2018-12-21T07:37:05.762Z,6.69
2018-12-21T07:38:05.738Z,6.70
2018-12-21T07:39:05.714Z,6.73
2018-12-21T07:40:05.708Z,6.74
2018-12-21T07:41:05.670Z,6.74
2018-12-21T07:42:05.651Z,6.73
2018-12-21T07:43:05.628Z,6.74
2018-12-21T07:44:05.604Z,6.73
2018-12-21T07:45:05.586Z,6.76
2018-12-21T07:46:05.565Z,6.76
2018-12-21T07:47:05.538Z,6.71
2018-12-21T07:48:05.526Z,6.76
2018-12-21T07:49:05.492Z,6.71
2018-12-21T07:50:05.476Z,6.70
2018-12-21T07:51:05.456Z,6.74
2018-12-21T07:52:05.431Z,6.74
2018-12-21T07:53:05.407Z,6.73
2018-12-21T07:54:05.390Z,6.71
2018-12-21T07:55:05.368Z,6.76
2018-12-21T07:56:05.343Z,6.71
2018-12-21T07:57:05.323Z,6.58
2018-12-21T07:58:05.302Z,6.62
2018-12-21T07:59:05.275Z,6.62
2018-12-21T08:00:05.252Z,6.56
2018-12-21T08:01:05.233Z,6.59
2018-12-21T08:02:05.208Z,6.61
2018-12-21T08:03:05.191Z,6.55
2018-12-21T08:04:05.163Z,6.58
2018-12-21T08:05:05.144Z,6.59
2018-12-21T08:06:05.126Z,6.54
2018-12-21T08:07:05.101Z,6.55
2018-12-21T08:08:05.077Z,6.61
2018-12-21T08:09:05.053Z,6.56
2018-12-21T08:10:05.029Z,6.59
2018-12-21T08:11:05.017Z,6.59
2018-12-21T08:12:04.991Z,6.56
2018-12-21T08:13:04.967Z,6.58
2018-12-21T08:14:04.938Z,6.59
2018-12-21T08:15:04.921Z,6.61
2018-12-21T08:16:04.901Z,6.62
2018-12-21T08:17:04.871Z,6.59
2018-12-21T08:18:04.858Z,6.67
2018-12-21T08:19:04.829Z,6.66
2018-12-21T08:20:04.816Z,6.62
2018-12-21T08:21:04.788Z,6.62
2018-12-21T08:22:04.762Z,6.64
2018-12-21T08:23:04.744Z,6.58
2018-12-21T08:24:04.720Z,6.67
2018-12-21T08:25:04.699Z,6.69
2018-12-21T08:26:04.680Z,6.55
2018-12-21T08:27:04.651Z,6.64
2018-12-21T08:28:04.636Z,6.58
2018-12-21T08:29:04.612Z,6.71
2018-12-21T08:30:04.585Z,6.73
2018-12-21T08:31:04.566Z,6.61
2018-12-21T08:32:04.547Z,6.62
2018-12-21T08:33:04.518Z,6.66
2018-12-21T08:34:04.498Z,6.74
2018-12-21T08:35:04.476Z,6.73
2018-12-21T08:36:04.456Z,6.61
2018-12-21T08:37:04.430Z,6.69
2018-12-21T08:38:04.411Z,6.66
2018-12-21T08:39:04.385Z,6.77
2018-12-21T08:40:04.377Z,6.61
2018-12-21T08:41:04.344Z,6.64
2018-12-21T08:42:04.319Z,6.70
2018-12-21T08:43:04.302Z,6.77
2018-12-21T08:44:04.281Z,6.73
2018-12-21T08:45:04.258Z,6.73
2018-12-21T08:46:04.235Z,6.71
2018-12-21T08:47:04.213Z,6.73
2018-12-21T08:48:04.188Z,6.70
2018-12-21T08:49:04.169Z,6.73
2018-12-21T08:50:56.569Z,6.80
2018-12-21T08:51:04.124Z,6.70
2018-12-21T08:52:04.106Z,6.77
2018-12-21T08:53:04.082Z,6.71
2018-12-21T08:54:04.058Z,6.70
2018-12-21T08:55:04.034Z,6.74
2018-12-21T08:56:04.015Z,6.76
2018-12-21T08:57:03.992Z,6.74
2018-12-21T08:58:03.968Z,6.71
2018-12-21T08:59:03.952Z,6.69
2018-12-21T09:00:03.930Z,6.71
2018-12-21T09:01:03.906Z,6.58
2018-12-21T09:02:03.882Z,6.61
2018-12-21T09:03:03.861Z,6.64
2018-12-21T09:04:03.838Z,6.58
2018-12-21T09:05:03.818Z,6.74
2018-12-21T09:06:03.790Z,6.73
2018-12-21T09:07:03.770Z,6.70
2018-12-21T09:08:03.750Z,6.71
2018-12-21T09:09:03.729Z,6.73
2018-12-21T09:10:03.706Z,6.69
2018-12-21T09:11:03.683Z,6.69
2018-12-21T09:12:03.660Z,6.73
2018-12-21T09:13:03.638Z,6.77
2018-12-21T09:14:03.616Z,6.77
2018-12-21T09:15:03.594Z,6.77
2018-12-21T09:16:03.570Z,6.76
2018-12-21T09:17:03.550Z,6.79
2018-12-21T09:18:03.530Z,6.76
2018-12-21T09:19:03.510Z,6.73
2018-12-21T09:20:03.484Z,6.87
2018-12-21T09:21:03.464Z,6.91
2018-12-21T09:22:03.438Z,6.85
2018-12-21T09:23:03.420Z,6.94
2018-12-21T09:24:03.395Z,6.85
2018-12-21T09:25:03.377Z,6.89
2018-12-21T09:26:03.357Z,6.85
2018-12-21T09:27:03.330Z,6.84
2018-12-21T09:28:03.311Z,6.87
2018-12-21T09:29:03.285Z,6.87
2018-12-21T09:30:03.272Z,6.85
2018-12-21T09:31:03.241Z,6.88
2018-12-21T09:32:05.181Z,6.89
2018-12-21T09:33:03.197Z,6.85
2018-12-21T09:34:03.176Z,6.92
2018-12-21T09:35:03.153Z,6.88
2018-12-21T09:36:03.135Z,6.98
2018-12-21T09:37:03.112Z,6.97
2018-12-21T09:38:03.091Z,6.98
2018-12-21T09:39:03.065Z,7.02
2018-12-21T09:40:03.049Z,7.06
2018-12-21T09:41:03.029Z,7.02
2018-12-21T09:42:03.001Z,7.09
2018-12-21T09:43:02.983Z,7.02
2018-12-21T09:44:02.959Z,7.03
2018-12-21T09:45:02.935Z,7.06
2018-12-21T09:46:02.913Z,7.03
2018-12-21T09:47:02.893Z,7.05
2018-12-21T09:48:02.867Z,7.05
2018-12-21T09:49:02.847Z,7.09
2018-12-21T09:50:02.824Z,7.10
2018-12-21T09:51:02.802Z,7.12
2018-12-21T09:52:02.781Z,7.21
2018-12-21T09:53:02.762Z,7.16
2018-12-21T09:54:09.891Z,7.16
2018-12-21T09:55:02.720Z,7.10
2018-12-21T09:56:02.695Z,7.10
2018-12-21T09:57:02.672Z,7.20
2018-12-21T09:58:02.655Z,7.28
2018-12-21T09:59:02.626Z,7.24
2018-12-21T10:00:02.611Z,7.27
2018-12-21T10:01:02.588Z,7.28
2018-12-21T10:02:02.571Z,7.27
2018-12-21T10:03:02.541Z,7.27
2018-12-21T10:04:02.525Z,7.28
2018-12-21T10:05:02.503Z,7.27
2018-12-21T10:06:02.477Z,7.27
2018-12-21T10:07:02.458Z,7.20
2018-12-21T10:08:02.439Z,7.32
2018-12-21T10:09:02.421Z,7.32
2018-12-21T10:10:02.392Z,7.32
2018-12-21T10:11:02.366Z,7.40
2018-12-21T10:12:02.351Z,7.34
2018-12-21T10:13:02.377Z,7.46
2018-12-21T10:14:02.304Z,7.52
2018-12-21T10:15:02.281Z,7.49
2018-12-21T10:16:02.358Z,7.55
2018-12-21T10:17:02.240Z,7.48
2018-12-21T10:18:02.217Z,7.57
2018-12-21T10:19:02.195Z,7.46
2018-12-21T10:20:02.175Z,7.57
2018-12-21T10:21:02.149Z,7.46
2018-12-21T10:22:02.134Z,7.53
2018-12-21T10:23:02.111Z,7.46
2018-12-21T10:24:02.090Z,7.43
2018-12-21T10:25:02.064Z,7.52
2018-12-21T10:26:02.051Z,7.46
2018-12-21T10:27:02.026Z,7.53
2018-12-21T10:28:02.001Z,7.50
2018-12-21T10:29:01.981Z,7.57
2018-12-21T10:30:01.967Z,7.50
2018-12-21T10:31:01.934Z,7.48
2018-12-21T10:32:01.915Z,7.43
2018-12-21T10:33:01.896Z,7.58
2018-12-21T10:34:01.873Z,7.57
2018-12-21T10:35:01.849Z,7.55
2018-12-21T10:36:01.827Z,7.57
2018-12-21T10:37:01.811Z,7.53
2018-12-21T10:38:01.796Z,7.48
2018-12-21T10:39:01.764Z,7.49
2018-12-21T10:40:01.746Z,7.58
2018-12-21T10:41:01.720Z,7.52
2018-12-21T10:42:01.703Z,7.52
2018-12-21T10:43:01.682Z,7.60
2018-12-21T10:44:01.659Z,7.71
2018-12-21T10:45:01.634Z,7.57
2018-12-21T10:46:01.613Z,7.55
2018-12-21T10:47:01.594Z,7.60
2018-12-21T10:48:01.572Z,7.68
2018-12-21T10:49:01.560Z,7.58
2018-12-21T10:50:01.619Z,7.69
2018-12-21T10:51:01.512Z,7.69
2018-12-21T10:52:01.490Z,7.69
2018-12-21T10:53:01.468Z,7.69
2018-12-21T10:54:01.443Z,7.77
2018-12-21T10:55:01.467Z,7.75
2018-12-21T10:56:01.402Z,7.80
2018-12-21T10:57:01.381Z,7.80
2018-12-21T10:58:01.372Z,7.77
2018-12-21T10:59:01.338Z,7.79
2018-12-21T11:00:01.314Z,7.86
2018-12-21T11:01:01.299Z,7.74
2018-12-21T11:02:01.281Z,7.72
2018-12-21T11:03:01.254Z,7.74
2018-12-21T11:04:01.233Z,7.69
2018-12-21T11:05:01.209Z,7.71
2018-12-21T11:06:01.190Z,7.72
2018-12-21T11:07:01.229Z,7.74
2018-12-21T11:08:08.037Z,7.71
2018-12-21T11:09:08.009Z,7.69
2018-12-21T11:10:07.992Z,7.71
2018-12-21T11:11:07.973Z,7.80
2018-12-21T11:12:07.948Z,7.69
2018-12-21T11:13:07.927Z,7.72
2018-12-21T11:14:07.909Z,7.71
2018-12-21T11:15:07.885Z,7.74
2018-12-21T11:16:07.866Z,7.72
2018-12-21T11:17:07.843Z,7.71
2018-12-21T11:18:07.820Z,7.64
2018-12-21T11:19:07.800Z,7.64
2018-12-21T11:20:07.789Z,7.63
2018-12-21T11:21:07.758Z,7.61
2018-12-21T11:22:07.737Z,7.74
2018-12-21T11:23:07.714Z,7.75
2018-12-21T11:24:07.695Z,7.64
2018-12-21T11:25:07.682Z,7.58
2018-12-21T11:26:07.654Z,7.64
2018-12-21T11:27:07.628Z,7.61
2018-12-21T11:28:07.611Z,7.61
2018-12-21T11:29:07.592Z,7.68
2018-12-21T11:30:07.573Z,7.64
2018-12-21T11:31:07.550Z,7.68
2018-12-21T11:32:07.524Z,7.69
2018-12-21T11:33:07.499Z,7.72
2018-12-21T11:34:07.482Z,7.72
2018-12-21T11:35:07.463Z,7.67
2018-12-21T11:36:07.433Z,7.74
2018-12-21T11:37:07.415Z,7.72
2018-12-21T11:38:07.394Z,7.72
2018-12-21T11:39:07.376Z,7.72
2018-12-21T11:40:07.354Z,7.72
2018-12-21T11:41:07.330Z,7.71
2018-12-21T11:42:07.317Z,7.69
2018-12-21T11:43:07.289Z,7.77
2018-12-21T11:44:07.276Z,7.72
2018-12-21T11:45:07.244Z,7.79
2018-12-21T11:46:07.222Z,7.75
2018-12-21T11:47:07.205Z,7.69
2018-12-21T11:48:07.184Z,7.71
2018-12-21T11:49:07.162Z,7.74
2018-12-21T11:50:07.137Z,7.63
2018-12-21T11:51:07.119Z,7.64
2018-12-21T11:52:07.102Z,7.74
2018-12-21T11:53:07.081Z,7.68
2018-12-21T11:54:07.057Z,7.75
2018-12-21T11:55:07.031Z,7.61
2018-12-21T11:56:07.011Z,7.69
2018-12-21T11:57:06.995Z,7.71
2018-12-21T11:58:06.967Z,7.67
2018-12-21T11:59:06.948Z,7.69
2018-12-21T12:00:06.925Z,7.68
2018-12-21T12:01:06.909Z,7.61
2018-12-21T12:02:06.888Z,7.69
2018-12-21T12:03:06.863Z,7.58
2018-12-21T12:04:06.838Z,7.60
2018-12-21T12:05:06.815Z,7.50
2018-12-21T12:06:06.795Z,7.60
2018-12-21T12:07:06.773Z,7.57
2018-12-21T12:08:06.789Z,7.49
2018-12-21T12:09:06.734Z,7.53
2018-12-21T12:10:06.711Z,7.58
2018-12-21T12:11:06.691Z,7.53
2018-12-21T12:12:06.671Z,7.52
2018-12-21T12:13:06.645Z,7.53
2018-12-21T12:14:06.623Z,7.58
2018-12-21T12:15:06.608Z,7.53
2018-12-21T12:16:06.583Z,7.55
2018-12-21T12:17:06.559Z,7.53
2018-12-21T12:18:06.537Z,7.57
2018-12-21T12:19:06.517Z,7.55
2018-12-21T12:20:06.497Z,7.52
2018-12-21T12:21:06.475Z,7.60
2018-12-21T12:22:06.458Z,7.50
2018-12-21T12:23:06.436Z,7.57
2018-12-21T12:24:06.414Z,7.63
2018-12-21T12:25:06.394Z,7.55
2018-12-21T12:26:06.369Z,7.53
2018-12-21T12:27:06.345Z,7.52
2018-12-21T12:28:06.322Z,7.52
2018-12-21T12:29:06.314Z,7.50
2018-12-21T12:30:06.281Z,7.52
2018-12-21T12:31:06.259Z,7.50
2018-12-21T12:32:06.238Z,7.49
2018-12-21T12:33:06.218Z,7.52
2018-12-21T12:34:06.196Z,7.50
2018-12-21T12:35:06.177Z,7.52
2018-12-21T12:36:06.148Z,7.50
2018-12-21T12:37:06.135Z,7.48
2018-12-21T12:38:06.108Z,7.49
2018-12-21T12:39:06.092Z,7.58
2018-12-21T12:40:06.065Z,7.49
2018-12-21T12:41:06.688Z,7.49
2018-12-21T12:42:06.023Z,7.48
2018-12-21T12:43:06.001Z,7.52
2018-12-21T12:44:05.977Z,7.46
2018-12-21T12:45:05.956Z,7.50
2018-12-21T12:46:05.937Z,7.46
2018-12-21T12:47:05.914Z,7.45
2018-12-21T12:48:05.891Z,7.50
2018-12-21T12:49:05.880Z,7.52
2018-12-21T12:50:05.856Z,7.50
2018-12-21T12:51:05.958Z,7.57
2018-12-21T12:52:05.809Z,7.52
2018-12-21T12:53:05.790Z,7.49
2018-12-21T12:54:05.774Z,7.49
2018-12-21T12:55:05.752Z,7.53
2018-12-21T12:56:05.720Z,7.52
2018-12-21T12:57:05.711Z,7.45
2018-12-21T12:58:05.684Z,7.55
2018-12-21T12:59:05.653Z,7.48
2018-12-21T13:00:05.634Z,7.42
2018-12-21T13:01:05.613Z,7.50
2018-12-21T13:02:05.590Z,7.48
2018-12-21T13:03:05.572Z,7.53
2018-12-21T13:04:05.557Z,7.52
2018-12-21T13:05:05.527Z,7.50
2018-12-21T13:06:05.504Z,7.40
2018-12-21T13:07:05.481Z,7.35
2018-12-21T13:08:05.468Z,7.43
2018-12-21T13:09:05.443Z,7.34
2018-12-21T13:10:05.415Z,7.34
2018-12-21T13:11:05.395Z,7.40
2018-12-21T13:12:05.378Z,7.37
2018-12-21T13:13:05.351Z,7.40
2018-12-21T13:14:05.331Z,7.28
2018-12-21T13:15:05.310Z,7.32
2018-12-21T13:16:05.410Z,7.31
2018-12-21T13:17:05.270Z,7.31
2018-12-21T13:18:05.241Z,7.35